Time;durP1;ratioP1;P1;durP2;ratioP2;P2;SDS_P1;SDS_P2;PMS_P1;PMS_P2;Temp;Humidity;BMP_temperature;BMP_pressure;BME280_temperature;BME280_humidity;BME280_pressure;Samples;Min_cycle;Max_cycle;Signal;HPM_P1;HPM_P2
2023/05/24 00:02:18;;;;;;;13.93;2.53;;;9.20;99.90;;;;;;12365191;28;20050;-36
2023/05/24 00:08:20;;;;;;;10.43;2.13;;;9.10;99.90;;;;;;12377235;28;20055;-36
2023/05/24 00:14:22;;;;;;;10.15;2.40;;;9.20;99.90;;;;;;12377915;28;20046;-35
2023/05/24 00:20:24;;;;;;;13.60;2.55;;;9.10;99.90;;;;;;12369906;28;20077;-35
2023/05/24 00:26:26;;;;;;;11.82;2.90;;;9.10;99.90;;;;;;12380336;28;20065;-35
2023/05/24 00:32:28;;;;;;;14.82;2.58;;;9.10;99.90;;;;;;12359064;28;20079;-36
2023/05/24 00:38:30;;;;;;;10.70;2.65;;;8.90;99.90;;;;;;12374772;28;20046;-36
2023/05/24 00:44:32;;;;;;;20.50;3.08;;;8.80;99.90;;;;;;12366726;28;20452;-36
2023/05/24 00:50:35;;;;;;;14.40;2.80;;;8.60;99.90;;;;;;12372648;28;20061;-35
2023/05/24 00:56:37;;;;;;;15.25;2.83;;;8.40;99.90;;;;;;12371789;28;20046;-36
2023/05/24 01:02:39;;;;;;;14.30;2.72;;;8.80;99.90;;;;;;12368272;28;20106;-36
2023/05/24 01:09:05;;;;;;;12.57;2.80;;;8.70;99.90;;;;;;12349824;28;20053;-35
2023/05/24 01:15:16;;;;;;;18.38;3.40;;;8.80;99.90;;;;;;12356720;28;20416;-35
2023/05/24 01:21:37;;;;;;;12.52;2.70;;;8.50;99.90;;;;;;12354270;28;20057;-35
2023/05/24 01:27:40;;;;;;;16.38;3.63;;;8.60;99.90;;;;;;12373565;28;20050;-35
2023/05/24 01:33:42;;;;;;;12.55;3.03;;;8.70;99.90;;;;;;12368293;28;20112;-34
2023/05/24 01:39:45;;;;;;;18.92;3.47;;;8.70;99.90;;;;;;12363909;28;20050;-35
2023/05/24 01:46:07;;;;;;;14.02;2.90;;;8.80;99.90;;;;;;12363211;28;20050;-35
2023/05/24 01:52:14;;;;;;;12.52;2.90;;;8.70;99.90;;;;;;12367476;28;20054;-35
2023/05/24 01:58:19;;;;;;;8.80;2.55;;;8.80;99.90;;;;;;12365156;28;20058;-36
2023/05/24 02:04:22;;;;;;;20.65;3.53;;;8.80;99.90;;;;;;12350992;28;20054;-38
2023/05/24 02:10:26;;;;;;;18.40;4.15;;;8.70;99.90;;;;;;12366570;28;20067;-37
2023/05/24 02:16:29;;;;;;;24.08;3.63;;;8.00;99.90;;;;;;12368569;28;20051;-38
2023/05/24 02:22:31;;;;;;;18.23;3.22;;;8.10;99.90;;;;;;12370281;28;20058;-38
2023/05/24 02:28:33;;;;;;;14.23;3.53;;;8.40;99.90;;;;;;12365651;28;20105;-37
2023/05/24 02:34:35;;;;;;;20.48;3.80;;;8.10;99.90;;;;;;12368188;28;20464;-38
2023/05/24 02:40:37;;;;;;;14.48;3.28;;;7.80;99.90;;;;;;12374397;28;20189;-38
2023/05/24 02:46:38;;;;;;;19.33;3.63;;;7.80;99.90;;;;;;12366813;28;20042;-37
2023/05/24 02:52:51;;;;;;;23.40;4.28;;;7.70;99.90;;;;;;1898865;28;117465;-37
2023/05/24 02:53:53;;;;;;;10.00;3.00;;;8.10;99.90;;;;;;2031474;28;20041;-37
2023/05/24 02:54:55;;;;;;;16.98;3.78;;;8.20;99.90;;;;;;2093608;28;20467;-37
2023/05/24 02:55:58;;;;;;;12.75;3.65;;;8.20;99.90;;;;;;2029537;28;20072;-39
2023/05/24 02:57:00;;;;;;;16.10;3.80;;;8.30;99.90;;;;;;2000152;28;20093;-38
2023/05/24 03:03:46;;;;;;;20.02;3.80;;;8.40;99.90;;;;;;12493815;27;20129;-38
2023/05/24 03:09:48;;;;;;;16.50;4.20;;;8.00;99.90;;;;;;12454984;28;20038;-37
2023/05/24 03:15:50;;;;;;;16.88;3.92;;;7.90;99.90;;;;;;12372263;28;20043;-37
2023/05/24 03:21:53;;;;;;;16.90;3.60;;;7.80;99.90;;;;;;12381559;28;20046;-37
2023/05/24 03:27:55;;;;;;;15.65;3.58;;;8.10;99.90;;;;;;12384183;28;20047;-37
2023/05/24 03:33:57;;;;;;;19.55;3.83;;;8.00;99.90;;;;;;12384814;28;20054;-37
2023/05/24 03:39:59;;;;;;;17.27;3.38;;;7.70;99.90;;;;;;12389554;28;20406;-37
2023/05/24 03:46:01;;;;;;;18.50;3.60;;;8.00;99.90;;;;;;12383551;28;20050;-37
2023/05/24 03:52:03;;;;;;;20.60;4.30;;;8.10;99.90;;;;;;12385609;28;20133;-37
2023/05/24 03:58:05;;;;;;;11.90;3.90;;;8.00;99.90;;;;;;12385741;28;20490;-37
2023/05/24 04:04:07;;;;;;;16.58;3.90;;;8.20;99.90;;;;;;12428015;28;20050;-37
2023/05/24 04:10:09;;;;;;;21.52;4.38;;;8.10;99.90;;;;;;12416022;28;20466;-37
2023/05/24 04:16:12;;;;;;;18.20;4.10;;;7.60;99.90;;;;;;12402882;28;20658;-37
2023/05/24 04:22:14;;;;;;;18.17;4.47;;;7.80;99.90;;;;;;12391209;28;20654;-37
2023/05/24 04:28:16;;;;;;;17.02;4.05;;;8.20;99.90;;;;;;12386694;28;20046;-37
2023/05/24 04:34:21;;;;;;;33.03;4.85;;;7.80;99.90;;;;;;12391523;28;20042;-37
2023/05/24 04:40:23;;;;;;;24.80;4.55;;;7.90;99.90;;;;;;12395874;28;20085;-37
2023/05/24 04:46:26;;;;;;;23.33;4.47;;;7.60;99.90;;;;;;12397085;28;20042;-37
2023/05/24 04:52:30;;;;;;;19.88;4.38;;;7.80;99.90;;;;;;12398859;28;20058;-36
2023/05/24 04:58:32;;;;;;;24.15;4.38;;;8.00;99.90;;;;;;12401097;28;20055;-37
2023/05/24 05:04:34;;;;;;;23.20;4.78;;;8.40;99.90;;;;;;12383673;28;20075;-37
2023/05/24 05:10:36;;;;;;;15.55;4.05;;;8.60;99.90;;;;;;12368246;28;20061;-38
2023/05/24 05:16:39;;;;;;;22.02;4.18;;;8.80;99.90;;;;;;12375249;28;20074;-37
2023/05/24 05:22:46;;;;;;;21.50;4.30;;;9.20;99.90;;;;;;12388128;28;20066;-37
2023/05/24 05:28:48;;;;;;;13.43;3.50;;;8.70;99.90;;;;;;12372839;28;20153;-37
2023/05/24 05:34:49;;;;;;;28.27;5.53;;;9.10;99.90;;;;;;12389657;28;20050;-37
2023/05/24 05:40:52;;;;;;;24.75;4.93;;;8.90;99.90;;;;;;12388252;28;20054;-37
2023/05/24 05:46:53;;;;;;;23.40;4.72;;;9.00;99.90;;;;;;12384193;28;20057;-37
2023/05/24 05:52:56;;;;;;;22.25;4.57;;;9.10;99.90;;;;;;12395418;28;20082;-37
2023/05/24 05:58:58;;;;;;;20.95;4.30;;;9.10;99.90;;;;;;12373476;28;20148;-37
2023/05/24 06:05:00;;;;;;;17.13;4.18;;;9.20;99.90;;;;;;12402851;28;20045;-37
2023/05/24 06:11:03;;;;;;;27.73;5.68;;;9.50;99.90;;;;;;12438844;28;20478;-37
2023/05/24 06:17:05;;;;;;;26.50;5.13;;;9.70;99.90;;;;;;12445266;28;20426;-37
2023/05/24 06:23:08;;;;;;;20.35;4.22;;;9.50;99.90;;;;;;12436648;28;20046;-37
2023/05/24 06:29:10;;;;;;;23.30;5.32;;;9.30;99.90;;;;;;12438964;28;20080;-37
2023/05/24 06:35:13;;;;;;;23.52;4.43;;;9.30;99.90;;;;;;12439313;28;20121;-37
2023/05/24 06:41:15;;;;;;;13.55;3.97;;;9.30;99.90;;;;;;12439116;28;20049;-38
2023/05/24 06:47:17;;;;;;;23.95;5.30;;;10.10;99.90;;;;;;12442065;28;20187;-37
2023/05/24 06:53:19;;;;;;;18.45;4.47;;;10.10;99.90;;;;;;12439027;28;20049;-37
2023/05/24 06:59:21;;;;;;;16.88;3.75;;;11.00;99.90;;;;;;12433823;28;20050;-37
2023/05/24 07:05:23;;;;;;;18.85;3.85;;;11.00;99.90;;;;;;12439627;28;20077;-37
2023/05/24 07:11:26;;;;;;;14.75;3.90;;;10.80;99.90;;;;;;12435979;28;20410;-37
2023/05/24 07:17:28;;;;;;;27.00;5.32;;;10.70;99.90;;;;;;12446503;28;20406;-38
2023/05/24 07:23:31;;;;;;;20.33;4.93;;;10.70;99.90;;;;;;12434586;28;20053;-37
2023/05/24 07:29:33;;;;;;;19.27;4.22;;;10.80;99.90;;;;;;12435232;28;20050;-37
2023/05/24 07:35:35;;;;;;;20.02;4.63;;;11.20;99.90;;;;;;12436236;28;20052;-37
2023/05/24 07:41:37;;;;;;;14.98;4.13;;;11.20;99.90;;;;;;12443720;28;20058;-37
2023/05/24 07:47:38;;;;;;;18.77;4.18;;;10.90;99.90;;;;;;12441504;28;20069;-36
2023/05/24 07:53:40;;;;;;;30.25;4.57;;;10.70;99.90;;;;;;12446146;28;20099;-37
2023/05/24 07:59:42;;;;;;;17.42;3.95;;;10.80;99.90;;;;;;12451162;28;20048;-37
2023/05/24 08:05:44;;;;;;;22.85;4.72;;;10.70;99.90;;;;;;12438643;28;20050;-38
2023/05/24 08:11:46;;;;;;;22.90;4.75;;;10.60;99.90;;;;;;12426416;28;20049;-37
2023/05/24 08:17:48;;;;;;;18.45;3.83;;;10.60;99.90;;;;;;12439518;28;20196;-36
2023/05/24 08:23:50;;;;;;;21.23;3.92;;;10.90;99.90;;;;;;12433933;28;20068;-38
2023/05/24 08:29:52;;;;;;;26.52;4.90;;;10.80;99.90;;;;;;12425141;28;20428;-37
2023/05/24 08:35:57;;;;;;;16.15;4.50;;;10.50;99.90;;;;;;12423326;28;20038;-37
2023/05/24 08:42:00;;;;;;;18.50;4.22;;;10.90;99.90;;;;;;12422525;28;20042;-37
2023/05/24 08:48:12;;;;;;;17.45;4.28;;;10.40;99.90;;;;;;12443305;28;20085;-37
2023/05/24 08:54:15;;;;;;;15.23;3.45;;;10.70;99.90;;;;;;12443315;28;20054;-37
2023/05/24 09:00:18;;;;;;;13.40;3.22;;;10.90;99.90;;;;;;12439623;28;20088;-37
2023/05/24 09:06:21;;;;;;;20.15;3.67;;;10.40;99.90;;;;;;12436375;28;20042;-37
2023/05/24 09:12:25;;;;;;;18.92;3.75;;;10.30;99.90;;;;;;12446979;28;20099;-37
2023/05/24 09:18:41;;;;;;;18.77;4.60;;;10.40;99.90;;;;;;12423722;28;20045;-37
2023/05/24 09:24:46;;;;;;;20.67;4.47;;;10.50;99.90;;;;;;12445719;28;20414;-37
2023/05/24 09:31:00;;;;;;;29.98;5.75;;;10.30;99.90;;;;;;12439823;28;20651;-37
2023/05/24 09:37:06;;;;;;;20.38;4.30;;;10.30;99.90;;;;;;12443774;28;20050;-37
2023/05/24 09:43:14;;;;;;;20.52;5.03;;;10.10;99.90;;;;;;12429587;28;20046;-38
2023/05/24 09:49:15;;;;;;;27.77;4.43;;;10.20;99.90;;;;;;12451468;28;20065;-38
2023/05/24 09:55:19;;;;;;;25.10;4.68;;;10.00;99.90;;;;;;12434008;28;20056;-37
2023/05/24 10:01:23;;;;;;;19.98;4.30;;;10.00;99.90;;;;;;12439468;28;20042;-37
2023/05/24 10:07:26;;;;;;;13.63;4.25;;;10.20;99.90;;;;;;12433322;28;20052;-38
2023/05/24 10:13:28;;;;;;;20.00;4.60;;;10.50;99.90;;;;;;12424183;28;20046;-37
2023/05/24 10:19:34;;;;;;;15.35;5.03;;;10.30;99.90;;;;;;12415258;28;20395;-38
2023/05/24 10:25:43;;;;;;;21.08;5.70;;;10.10;99.90;;;;;;12421020;28;20450;-38
2023/05/24 10:31:45;;;;;;;17.10;4.70;;;10.00;99.90;;;;;;12435706;28;20050;-38
2023/05/24 10:37:49;;;;;;;24.92;5.65;;;10.40;99.90;;;;;;12416503;28;20649;-37
2023/05/24 10:43:52;;;;;;;20.13;5.57;;;10.60;99.90;;;;;;12424499;28;20052;-38
2023/05/24 10:50:21;;;;;;;22.50;5.53;;;10.50;99.90;;;;;;12436911;28;20514;-38
2023/05/24 10:56:25;;;;;;;16.73;4.32;;;10.60;99.90;;;;;;12435836;28;20038;-39
2023/05/24 11:02:34;;;;;;;25.92;5.43;;;10.60;99.90;;;;;;12445035;28;20080;-38
2023/05/24 11:08:42;;;;;;;25.23;5.18;;;10.20;99.90;;;;;;12427953;28;20046;-38
2023/05/24 11:14:50;;;;;;;15.63;4.07;;;10.40;99.90;;;;;;12435380;28;20041;-39
2023/05/24 11:20:58;;;;;;;11.50;4.07;;;10.60;99.90;;;;;;12440043;28;20042;-38
2023/05/24 11:27:01;;;;;;;19.60;4.95;;;10.80;99.90;;;;;;12451918;28;20415;-38
2023/05/24 11:33:03;;;;;;;27.95;5.68;;;11.10;99.90;;;;;;12443332;28;20058;-38
2023/05/24 11:39:08;;;;;;;26.92;6.85;;;10.90;99.90;;;;;;12447364;28;20619;-39
2023/05/24 11:45:10;;;;;;;15.00;4.40;;;11.40;99.90;;;;;;12446548;28;20050;-38
2023/05/24 11:51:12;;;;;;;25.13;5.53;;;11.70;99.90;;;;;;12453057;28;20061;-38
2023/05/24 11:57:15;;;;;;;22.10;5.45;;;11.70;99.90;;;;;;12452901;28;20078;-39
2023/05/24 12:03:17;;;;;;;28.27;5.85;;;11.80;99.90;;;;;;12452763;28;20057;-40
2023/05/24 12:09:21;;;;;;;23.05;5.45;;;11.20;99.90;;;;;;12445436;28;20091;-39
2023/05/24 12:15:23;;;;;;;24.08;5.38;;;11.80;99.90;;;;;;12441935;28;20072;-39
2023/05/24 12:21:29;;;;;;;18.85;4.75;;;11.80;99.90;;;;;;12444645;28;20053;-39
2023/05/24 12:27:33;;;;;;;20.90;4.75;;;12.20;99.90;;;;;;12444929;28;20379;-39
2023/05/24 12:33:36;;;;;;;13.88;4.50;;;12.10;99.90;;;;;;12442312;28;20061;-39
2023/05/24 12:39:38;;;;;;;21.30;5.63;;;12.40;99.90;;;;;;12443039;28;20057;-39
2023/05/24 12:45:40;;;;;;;15.57;4.60;;;12.20;99.90;;;;;;12442817;28;20441;-40
2023/05/24 12:51:42;;;;;;;15.10;4.43;;;12.80;99.90;;;;;;12445678;28;20148;-39
2023/05/24 12:57:51;;;;;;;20.63;5.68;;;12.50;99.90;;;;;;12448271;28;20042;-39
2023/05/24 13:03:53;;;;;;;23.13;5.32;;;12.50;99.90;;;;;;12450109;28;20410;-39
2023/05/24 13:09:57;;;;;;;17.00;5.13;;;11.70;99.90;;;;;;12434822;28;20251;-39
2023/05/24 13:15:59;;;;;;;17.85;4.68;;;11.90;99.90;;;;;;12441009;28;20061;-39
2023/05/24 13:22:01;;;;;;;14.52;4.57;;;11.70;99.90;;;;;;12442548;28;20058;-40
2023/05/24 13:28:03;;;;;;;14.63;4.53;;;11.60;99.90;;;;;;12443468;28;20053;-39
2023/05/24 13:34:06;;;;;;;17.98;4.45;;;11.40;99.90;;;;;;12458437;28;20050;-39
2023/05/24 13:40:08;;;;;;;23.13;5.15;;;11.80;99.90;;;;;;12448065;28;20137;-38
2023/05/24 13:46:11;;;;;;;17.02;4.25;;;11.60;99.90;;;;;;12428746;28;20521;-39
2023/05/24 13:52:13;;;;;;;22.57;5.67;;;12.00;99.90;;;;;;12443742;28;20054;-39
2023/05/24 13:58:15;;;;;;;22.92;5.32;;;12.00;99.90;;;;;;12450968;28;20060;-39
2023/05/24 14:04:18;;;;;;;17.40;4.93;;;11.90;99.90;;;;;;12435681;28;20143;-38
2023/05/24 14:10:20;;;;;;;19.38;4.90;;;11.80;99.90;;;;;;12424298;28;20053;-39
2023/05/24 14:16:23;;;;;;;21.55;6.45;;;11.70;99.90;;;;;;12440610;28;20080;-39
2023/05/24 14:22:28;;;;;;;14.82;5.10;;;12.00;99.90;;;;;;12435901;28;20147;-39
2023/05/24 14:28:30;;;;;;;18.45;5.93;;;11.90;99.90;;;;;;12448171;28;20046;-39
2023/05/24 14:34:31;;;;;;;23.02;5.38;;;12.30;99.90;;;;;;12433918;28;20156;-39
2023/05/24 14:40:35;;;;;;;22.73;6.72;;;12.10;99.90;;;;;;12436951;28;20044;-39
2023/05/24 14:46:39;;;;;;;13.73;5.05;;;12.20;99.90;;;;;;12441506;28;20046;-39
2023/05/24 14:52:41;;;;;;;17.97;4.50;;;12.50;99.90;;;;;;12443984;28;20042;-39
2023/05/24 14:58:43;;;;;;;20.80;6.18;;;12.50;99.90;;;;;;12440224;28;20129;-39
2023/05/24 15:04:45;;;;;;;20.85;5.07;;;12.40;99.90;;;;;;12437667;28;20046;-39
2023/05/24 15:10:47;;;;;;;22.30;4.82;;;12.60;99.90;;;;;;12405681;28;20444;-39
2023/05/24 15:16:49;;;;;;;18.67;5.30;;;13.10;99.90;;;;;;12408685;28;20046;-38
2023/05/24 15:22:51;;;;;;;18.25;5.30;;;13.20;99.90;;;;;;12411754;28;20042;-38
2023/05/24 15:28:53;;;;;;;17.05;5.72;;;12.80;99.90;;;;;;12416911;28;20057;-39
2023/05/24 15:34:55;;;;;;;19.00;5.43;;;12.70;99.90;;;;;;12422934;28;20449;-38
2023/05/24 15:40:57;;;;;;;21.00;6.15;;;12.90;99.90;;;;;;12444139;28;20409;-38
2023/05/24 15:47:00;;;;;;;20.65;6.57;;;13.10;99.90;;;;;;12444135;28;20050;-39
2023/05/24 15:53:03;;;;;;;17.02;5.85;;;13.40;99.90;;;;;;12417380;28;20049;-40
2023/05/24 15:59:05;;;;;;;14.30;4.80;;;13.30;99.90;;;;;;12410386;28;20064;-39
2023/05/24 16:05:07;;;;;;;14.20;4.53;;;13.10;99.90;;;;;;12406716;28;20050;-40
2023/05/24 16:11:09;;;;;;;25.50;5.45;;;13.10;99.90;;;;;;12438508;28;20175;-39
2023/05/24 16:17:11;;;;;;;23.08;5.68;;;13.10;99.90;;;;;;12444308;28;20555;-39
2023/05/24 16:23:14;;;;;;;10.60;4.72;;;13.00;99.90;;;;;;12439865;28;20066;-39
2023/05/24 16:29:19;;;;;;;19.17;5.72;;;13.00;99.90;;;;;;12441915;28;20053;-39
2023/05/24 16:35:21;;;;;;;23.17;5.57;;;13.00;99.90;;;;;;12436760;28;20498;-38
2023/05/24 16:41:23;;;;;;;14.55;5.13;;;12.80;99.90;;;;;;12440414;28;20077;-38
2023/05/24 16:47:25;;;;;;;13.68;5.70;;;12.90;99.90;;;;;;12438238;28;20053;-39
2023/05/24 16:53:30;;;;;;;16.33;5.90;;;12.90;99.90;;;;;;12469300;28;20041;-38
2023/05/24 16:59:32;;;;;;;15.90;5.03;;;12.80;99.90;;;;;;12440740;28;20144;-39
2023/05/24 17:05:34;;;;;;;17.13;5.28;;;12.90;99.90;;;;;;12433977;28;20049;-38
2023/05/24 17:11:37;;;;;;;13.60;4.90;;;12.70;99.90;;;;;;12437566;28;20562;-39
2023/05/24 17:17:38;;;;;;;22.65;6.47;;;13.00;99.90;;;;;;12444457;28;20081;-38
2023/05/24 17:23:40;;;;;;;19.17;5.85;;;12.80;99.90;;;;;;12468848;28;20053;-39
2023/05/24 17:29:43;;;;;;;15.48;5.53;;;12.90;99.90;;;;;;12429761;28;20077;-39
2023/05/24 17:35:45;;;;;;;20.13;5.75;;;13.60;99.90;;;;;;12437228;28;20421;-39
2023/05/24 17:41:47;;;;;;;23.50;6.10;;;13.00;99.90;;;;;;12437115;28;20461;-39
2023/05/24 17:47:49;;;;;;;22.48;5.60;;;12.50;99.90;;;;;;12438657;28;20050;-38
2023/05/24 17:53:51;;;;;;;15.00;5.28;;;12.50;99.90;;;;;;12443511;28;20136;-39
2023/05/24 17:59:53;;;;;;;17.75;5.85;;;12.40;99.90;;;;;;12439105;28;20049;-38
2023/05/24 18:05:55;;;;;;;20.10;5.95;;;12.90;99.90;;;;;;12437012;28;20514;-39
2023/05/24 18:11:57;;;;;;;21.63;6.03;;;12.60;99.90;;;;;;12438258;28;20050;-39
2023/05/24 18:17:59;;;;;;;15.18;5.50;;;12.60;99.90;;;;;;12439480;28;20542;-38
2023/05/24 18:24:01;;;;;;;18.58;5.88;;;12.80;99.90;;;;;;12439561;28;20429;-38
2023/05/24 18:30:05;;;;;;;24.10;5.95;;;12.90;99.90;;;;;;12430823;28;20065;-39
2023/05/24 18:36:07;;;;;;;24.27;6.60;;;12.50;99.90;;;;;;12435119;28;20046;-38
2023/05/24 18:42:11;;;;;;;17.60;5.93;;;12.70;99.90;;;;;;12437985;28;20050;-38
2023/05/24 18:48:13;;;;;;;12.07;4.97;;;12.70;99.90;;;;;;12443984;28;20058;-38
2023/05/24 18:54:15;;;;;;;15.88;5.90;;;12.60;99.90;;;;;;12435017;28;20072;-38
2023/05/24 19:00:21;;;;;;;19.35;5.78;;;12.50;99.90;;;;;;12462904;28;20053;-39
2023/05/24 19:06:23;;;;;;;18.63;6.05;;;12.10;99.90;;;;;;12428699;28;20498;-38
2023/05/24 19:12:25;;;;;;;20.77;5.72;;;12.00;99.90;;;;;;12434724;28;20046;-39
2023/05/24 19:18:27;;;;;;;16.55;6.15;;;11.90;99.90;;;;;;12438550;28;20049;-38
2023/05/24 19:24:29;;;;;;;20.30;6.25;;;11.80;99.90;;;;;;12437389;28;20505;-39
2023/05/24 19:30:31;;;;;;;15.38;5.78;;;11.70;99.90;;;;;;12433554;28;20082;-38
2023/05/24 19:36:33;;;;;;;23.95;5.82;;;11.70;99.90;;;;;;12430467;28;20403;-38
2023/05/24 19:42:35;;;;;;;19.38;5.90;;;11.50;99.90;;;;;;12442407;28;20077;-38
2023/05/24 19:48:37;;;;;;;21.20;6.90;;;11.40;99.90;;;;;;12445041;28;20057;-39
2023/05/24 19:54:40;;;;;;;22.40;6.10;;;11.30;99.90;;;;;;12446836;28;20084;-39
2023/05/24 20:00:41;;;;;;;15.73;5.45;;;11.20;99.90;;;;;;12443259;28;20402;-37
2023/05/24 20:06:43;;;;;;;20.13;6.20;;;11.40;99.90;;;;;;12439325;28;20190;-38
2023/05/24 20:12:45;;;;;;;15.57;5.53;;;11.30;99.90;;;;;;12433909;28;20086;-38
2023/05/24 20:18:47;;;;;;;16.23;5.32;;;11.40;99.90;;;;;;12434452;28;20467;-38
2023/05/24 20:24:49;;;;;;;21.50;6.03;;;11.40;99.90;;;;;;12435481;28;20050;-38
2023/05/24 20:30:53;;;;;;;15.02;5.53;;;11.20;99.90;;;;;;12433662;28;20049;-39
2023/05/24 20:36:55;;;;;;;19.95;7.00;;;11.20;99.90;;;;;;12438992;28;20478;-38
2023/05/24 20:42:57;;;;;;;14.85;5.63;;;11.20;99.90;;;;;;12445786;28;20077;-38
2023/05/24 20:48:59;;;;;;;17.30;6.00;;;11.20;99.90;;;;;;12441175;28;20069;-39
2023/05/24 20:55:01;;;;;;;17.98;5.60;;;11.20;99.90;;;;;;12438913;28;20050;-38
2023/05/24 21:01:03;;;;;;;17.75;7.65;;;11.00;99.90;;;;;;12441181;28;20095;-39
2023/05/24 21:07:06;;;;;;;15.18;6.05;;;11.10;99.90;;;;;;12441234;28;20045;-39
2023/05/24 21:13:08;;;;;;;12.87;5.67;;;11.00;99.90;;;;;;12453008;28;20501;-38
2023/05/24 21:19:10;;;;;;;16.73;6.60;;;11.00;99.90;;;;;;12442718;28;20050;-38
2023/05/24 21:25:12;;;;;;;13.75;6.38;;;11.00;99.90;;;;;;12438767;28;20054;-38
2023/05/24 21:31:14;;;;;;;12.27;5.40;;;11.10;99.90;;;;;;12437181;28;20133;-39
2023/05/24 21:37:16;;;;;;;15.73;5.32;;;11.10;99.90;;;;;;12431840;28;20136;-38
2023/05/24 21:43:18;;;;;;;13.55;5.30;;;10.80;99.90;;;;;;12441714;28;20144;-38
2023/05/24 21:49:20;;;;;;;15.70;5.63;;;10.80;99.90;;;;;;12443789;28;20042;-38
2023/05/24 21:55:22;;;;;;;14.77;6.05;;;10.70;99.90;;;;;;12444043;28;20049;-38
2023/05/24 22:01:23;;;;;;;16.65;6.25;;;10.70;99.90;;;;;;12435690;28;20699;-38
2023/05/24 22:07:25;;;;;;;17.27;6.55;;;10.50;99.90;;;;;;12426578;28;20103;-38
2023/05/24 22:13:28;;;;;;;18.30;6.05;;;10.60;99.90;;;;;;12439593;28;20072;-38
2023/05/24 22:19:30;;;;;;;14.70;6.22;;;10.90;99.90;;;;;;12438928;28;20085;-38
2023/05/24 22:25:41;;;;;;;10.05;5.30;;;10.70;99.90;;;;;;12435118;28;20049;-38
2023/05/24 22:31:43;;;;;;;12.77;6.07;;;10.60;99.90;;;;;;12433516;28;20053;-38
2023/05/24 22:37:45;;;;;;;14.38;5.95;;;10.70;99.90;;;;;;12434286;28;20054;-38
2023/05/24 22:43:47;;;;;;;11.40;5.53;;;10.60;99.90;;;;;;12435793;28;20046;-39
2023/05/24 22:49:52;;;;;;;13.63;5.47;;;10.50;99.90;;;;;;12434927;28;20133;-37
2023/05/24 22:55:54;;;;;;;11.70;5.47;;;10.50;99.90;;;;;;12436115;28;20046;-38
2023/05/24 23:01:56;;;;;;;7.57;4.63;;;10.30;99.90;;;;;;12432974;28;20045;-38
2023/05/24 23:07:58;;;;;;;14.10;6.47;;;10.50;99.90;;;;;;12431775;28;20516;-38
2023/05/24 23:14:01;;;;;;;20.25;5.82;;;10.30;99.90;;;;;;12430532;28;20506;-38
2023/05/24 23:20:03;;;;;;;12.00;5.68;;;10.20;99.90;;;;;;12447801;28;20168;-39
2023/05/24 23:26:05;;;;;;;15.45;6.70;;;10.10;99.90;;;;;;12446981;28;20669;-38
2023/05/24 23:32:08;;;;;;;16.88;6.03;;;10.10;99.90;;;;;;12447629;28;20046;-38
2023/05/24 23:38:11;;;;;;;10.60;5.75;;;9.90;99.90;;;;;;12450187;28;20061;-38
2023/05/24 23:44:12;;;;;;;13.35;6.47;;;9.80;99.90;;;;;;12445385;28;20179;-39
2023/05/24 23:50:21;;;;;;;13.82;6.38;;;9.70;99.90;;;;;;12444001;28;20081;-39
2023/05/24 23:56:22;;;;;;;12.13;5.78;;;9.80;99.90;;;;;;12445433;28;20041;-37
